Terminal Aerodrome Forecast
Issued by NWS

Home | Current Version | Previous Version | Text Only | Print | Product List | Glossary On
Versions: 1 2 3 4 5 6 7 8 9 10 11 12 13 14
000
FTUS46 KSEW 272300
TAFBFI
TAF
KBFI 272320Z 2800/2824 20010G16KT P6SM -SHRA SCT010 BKN020 OVC040
     FM280400 21010KT P6SM VCSH SCT020 BKN035 OVC060
     FM281000 20007KT P6SM BKN020
     FM281400 16004KT P6SM OVC020
     FM282100 21005KT P6SM OVC020=

USA.gov is the U.S. government's official web portal to all federal, state and local government web resources and services.